Skip Navigation LinksHome page > Weather > Current weather Skip Navigation Links

Current Weather

Unknown weather station OMDB

For information only: do not use for flight planning or navigation.
Latest weather
Observation time Sunday, August 1, 2021 9:00 AM UTC
Local time Sunday, August 1, 2021 9:54 AM UTC
Flight conditions Visual Meteorological Conditions
Winds
Wind direction West-Northwest (300°)
Winds variable from 250° to 330°
Wind speed 12 mph
Visibility 6.2 mi.
Sky condition
Ceiling unlimited
Sky clear
Temperature 104°F
Dewpoint 72°F
Altimeter 29.47 in.Hg
Derived measurements
Relative humidity 36%
Heat index 104°F
Density altitude 3674 ft.
Remarks
Ceiling and visibility OK.
No significant changes expected in the next two hours.
METAR OMDB 010900Z 30010KT 250V330 CAVOK 40/22 Q0998 NOSIG

Settings

Location code

InnerDrive.Weather 4.0.6770.0 Release CLR 4.0.30319.42000
Copyright ©2018 Inner Drive Technology. All rights reserved. Portions Copyright ©1986-2018 David Braverman.

Find weather

Site navigation


Skip Navigation Links

Place info

Page info

PayPal - The safer, easier way to pay online!

Return home.

Copyright ©2021 Inner Drive Technology. Purveyors of fine, hand-crafted computer software. Page printed 2021-08-01T09:54:30 UTC.